sensor_id;sensor_type;location;lat;lon;timestamp;P1;durP1;ratioP1;P2;durP2;ratioP2
19798;SDS011;10059;59.850;10.454;2023-02-28T00:01:07;1.43;;;1.00;;
19798;SDS011;10059;59.850;10.454;2023-02-28T00:03:35;1.97;;;1.10;;
19798;SDS011;10059;59.850;10.454;2023-02-28T00:06:02;2.13;;;1.13;;
19798;SDS011;10059;59.850;10.454;2023-02-28T00:08:29;1.80;;;1.20;;
19798;SDS011;10059;59.850;10.454;2023-02-28T00:11:00;1.70;;;1.17;;
19798;SDS011;10059;59.850;10.454;2023-02-28T00:13:27;4.17;;;1.40;;
19798;SDS011;10059;59.850;10.454;2023-02-28T00:16:00;2.23;;;1.20;;
19798;SDS011;10059;59.850;10.454;2023-02-28T00:18:28;2.63;;;1.20;;
19798;SDS011;10059;59.850;10.454;2023-02-28T00:20:56;4.47;;;1.50;;
19798;SDS011;10059;59.850;10.454;2023-02-28T00:23:23;4.73;;;1.67;;
19798;SDS011;10059;59.850;10.454;2023-02-28T00:25:50;4.57;;;1.23;;
19798;SDS011;10059;59.850;10.454;2023-02-28T00:28:17;2.17;;;1.17;;
19798;SDS011;10059;59.850;10.454;2023-02-28T00:30:44;1.73;;;1.13;;
19798;SDS011;10059;59.850;10.454;2023-02-28T00:33:11;2.13;;;1.47;;
19798;SDS011;10059;59.850;10.454;2023-02-28T00:35:38;2.33;;;1.27;;
19798;SDS011;10059;59.850;10.454;2023-02-28T00:38:06;1.97;;;1.13;;
19798;SDS011;10059;59.850;10.454;2023-02-28T00:40:33;1.83;;;1.10;;
19798;SDS011;10059;59.850;10.454;2023-02-28T00:43:00;3.47;;;1.30;;
19798;SDS011;10059;59.850;10.454;2023-02-28T00:45:26;2.77;;;1.27;;
19798;SDS011;10059;59.850;10.454;2023-02-28T00:47:53;2.03;;;1.20;;
19798;SDS011;10059;59.850;10.454;2023-02-28T00:50:20;1.53;;;1.10;;
19798;SDS011;10059;59.850;10.454;2023-02-28T00:52:47;1.70;;;1.20;;
19798;SDS011;10059;59.850;10.454;2023-02-28T00:55:15;2.40;;;1.20;;
19798;SDS011;10059;59.850;10.454;2023-02-28T00:57:43;2.37;;;1.53;;
19798;SDS011;10059;59.850;10.454;2023-02-28T01:00:10;4.67;;;1.27;;
19798;SDS011;10059;59.850;10.454;2023-02-28T01:02:38;1.87;;;1.10;;
19798;SDS011;10059;59.850;10.454;2023-02-28T01:05:05;2.33;;;1.00;;
19798;SDS011;10059;59.850;10.454;2023-02-28T01:07:32;2.03;;;1.10;;
19798;SDS011;10059;59.850;10.454;2023-02-28T01:09:59;4.17;;;1.20;;
19798;SDS011;10059;59.850;10.454;2023-02-28T01:12:27;1.63;;;1.00;;
19798;SDS011;10059;59.850;10.454;2023-02-28T01:14:54;1.17;;;0.80;;
19798;SDS011;10059;59.850;10.454;2023-02-28T01:17:21;1.83;;;0.90;;
19798;SDS011;10059;59.850;10.454;2023-02-28T01:19:48;1.70;;;1.00;;
19798;SDS011;10059;59.850;10.454;2023-02-28T01:22:14;2.50;;;1.00;;
19798;SDS011;10059;59.850;10.454;2023-02-28T01:24:41;1.70;;;0.90;;
19798;SDS011;10059;59.850;10.454;2023-02-28T01:27:08;2.17;;;0.90;;
19798;SDS011;10059;59.850;10.454;2023-02-28T01:29:36;4.37;;;2.07;;
19798;SDS011;10059;59.850;10.454;2023-02-28T01:32:03;5.53;;;2.50;;
19798;SDS011;10059;59.850;10.454;2023-02-28T01:34:30;5.63;;;2.20;;
19798;SDS011;10059;59.850;10.454;2023-02-28T01:36:57;4.03;;;2.27;;
19798;SDS011;10059;59.850;10.454;2023-02-28T01:39:24;6.37;;;3.43;;
19798;SDS011;10059;59.850;10.454;2023-02-28T01:41:51;6.00;;;3.40;;
19798;SDS011;10059;59.850;10.454;2023-02-28T01:47:27;7.87;;;4.33;;
19798;SDS011;10059;59.850;10.454;2023-02-28T01:49:57;8.33;;;4.33;;
19798;SDS011;10059;59.850;10.454;2023-02-28T01:52:26;9.13;;;4.23;;
19798;SDS011;10059;59.850;10.454;2023-02-28T01:54:55;9.67;;;4.20;;
19798;SDS011;10059;59.850;10.454;2023-02-28T01:57:26;9.00;;;3.97;;
19798;SDS011;10059;59.850;10.454;2023-02-28T02:00:00;12.07;;;4.57;;
19798;SDS011;10059;59.850;10.454;2023-02-28T02:02:32;8.97;;;4.13;;
19798;SDS011;10059;59.850;10.454;2023-02-28T02:05:04;9.63;;;4.33;;
19798;SDS011;10059;59.850;10.454;2023-02-28T02:07:33;9.07;;;4.57;;
19798;SDS011;10059;59.850;10.454;2023-02-28T02:10:04;11.93;;;4.50;;
19798;SDS011;10059;59.850;10.454;2023-02-28T02:12:36;8.87;;;4.63;;
19798;SDS011;10059;59.850;10.454;2023-02-28T02:15:19;10.23;;;4.87;;
19798;SDS011;10059;59.850;10.454;2023-02-28T02:17:50;7.90;;;4.53;;
19798;SDS011;10059;59.850;10.454;2023-02-28T02:29:30;7.23;;;3.30;;
19798;SDS011;10059;59.850;10.454;2023-02-28T02:32:30;10.17;;;3.17;;
19798;SDS011;10059;59.850;10.454;2023-02-28T02:35:22;7.27;;;3.03;;
19798;SDS011;10059;59.850;10.454;2023-02-28T02:37:52;6.83;;;3.30;;
19798;SDS011;10059;59.850;10.454;2023-02-28T02:40:27;5.97;;;3.10;;
19798;SDS011;10059;59.850;10.454;2023-02-28T02:43:00;7.43;;;3.47;;
19798;SDS011;10059;59.850;10.454;2023-02-28T02:45:31;6.63;;;3.40;;
19798;SDS011;10059;59.850;10.454;2023-02-28T02:48:01;8.93;;;3.43;;
19798;SDS011;10059;59.850;10.454;2023-02-28T02:50:33;5.53;;;3.37;;
19798;SDS011;10059;59.850;10.454;2023-02-28T02:53:03;6.63;;;3.50;;
19798;SDS011;10059;59.850;10.454;2023-02-28T02:55:31;5.63;;;3.10;;
19798;SDS011;10059;59.850;10.454;2023-02-28T02:58:02;5.87;;;3.03;;
19798;SDS011;10059;59.850;10.454;2023-02-28T03:00:31;5.93;;;3.07;;
19798;SDS011;10059;59.850;10.454;2023-02-28T03:03:02;5.73;;;3.00;;
19798;SDS011;10059;59.850;10.454;2023-02-28T03:05:32;5.93;;;2.90;;
19798;SDS011;10059;59.850;10.454;2023-02-28T03:08:05;6.33;;;3.00;;
19798;SDS011;10059;59.850;10.454;2023-02-28T03:10:34;5.50;;;2.97;;
19798;SDS011;10059;59.850;10.454;2023-02-28T03:13:11;9.10;;;3.30;;
19798;SDS011;10059;59.850;10.454;2023-02-28T03:15:54;11.47;;;4.10;;
19798;SDS011;10059;59.850;10.454;2023-02-28T03:18:36;11.43;;;4.90;;
19798;SDS011;10059;59.850;10.454;2023-02-28T03:21:14;11.63;;;5.20;;
19798;SDS011;10059;59.850;10.454;2023-02-28T03:23:51;9.53;;;4.60;;
19798;SDS011;10059;59.850;10.454;2023-02-28T03:26:26;12.60;;;4.23;;
19798;SDS011;10059;59.850;10.454;2023-02-28T03:28:56;10.80;;;3.83;;
19798;SDS011;10059;59.850;10.454;2023-02-28T03:31:29;10.90;;;3.93;;
19798;SDS011;10059;59.850;10.454;2023-02-28T03:34:00;5.77;;;3.20;;
19798;SDS011;10059;59.850;10.454;2023-02-28T03:36:32;8.07;;;2.80;;
19798;SDS011;10059;59.850;10.454;2023-02-28T03:39:09;8.53;;;3.50;;
19798;SDS011;10059;59.850;10.454;2023-02-28T03:41:38;8.37;;;2.80;;
19798;SDS011;10059;59.850;10.454;2023-02-28T03:44:10;4.47;;;2.67;;
19798;SDS011;10059;59.850;10.454;2023-02-28T03:46:43;5.20;;;2.60;;
19798;SDS011;10059;59.850;10.454;2023-02-28T03:49:15;5.37;;;2.80;;
19798;SDS011;10059;59.850;10.454;2023-02-28T03:51:46;8.43;;;2.57;;
19798;SDS011;10059;59.850;10.454;2023-02-28T03:54:17;6.20;;;2.87;;
19798;SDS011;10059;59.850;10.454;2023-02-28T03:56:48;4.33;;;2.30;;
19798;SDS011;10059;59.850;10.454;2023-02-28T03:59:20;5.00;;;2.77;;
19798;SDS011;10059;59.850;10.454;2023-02-28T04:01:52;4.93;;;2.50;;
19798;SDS011;10059;59.850;10.454;2023-02-28T04:04:20;4.43;;;2.00;;
19798;SDS011;10059;59.850;10.454;2023-02-28T04:06:51;2.97;;;2.00;;
19798;SDS011;10059;59.850;10.454;2023-02-28T04:09:19;2.87;;;1.70;;
19798;SDS011;10059;59.850;10.454;2023-02-28T04:11:46;1.53;;;1.10;;
19798;SDS011;10059;59.850;10.454;2023-02-28T04:14:17;4.00;;;1.60;;
19798;SDS011;10059;59.850;10.454;2023-02-28T04:16:44;1.97;;;1.50;;
19798;SDS011;10059;59.850;10.454;2023-02-28T04:19:12;4.93;;;1.70;;
19798;SDS011;10059;59.850;10.454;2023-02-28T04:21:40;1.60;;;1.17;;
19798;SDS011;10059;59.850;10.454;2023-02-28T04:24:11;2.73;;;1.53;;
19798;SDS011;10059;59.850;10.454;2023-02-28T04:26:40;2.33;;;1.40;;
19798;SDS011;10059;59.850;10.454;2023-02-28T04:29:09;2.80;;;1.60;;
19798;SDS011;10059;59.850;10.454;2023-02-28T04:31:36;1.43;;;1.00;;
19798;SDS011;10059;59.850;10.454;2023-02-28T04:34:03;1.20;;;0.87;;
19798;SDS011;10059;59.850;10.454;2023-02-28T04:36:30;4.90;;;2.50;;
19798;SDS011;10059;59.850;10.454;2023-02-28T04:38:57;4.13;;;2.40;;
19798;SDS011;10059;59.850;10.454;2023-02-28T04:41:26;3.47;;;2.10;;
19798;SDS011;10059;59.850;10.454;2023-02-28T04:43:53;4.43;;;2.40;;
19798;SDS011;10059;59.850;10.454;2023-02-28T04:46:21;3.30;;;2.00;;
19798;SDS011;10059;59.850;10.454;2023-02-28T04:48:48;4.13;;;2.27;;
19798;SDS011;10059;59.850;10.454;2023-02-28T04:51:16;4.20;;;2.20;;
19798;SDS011;10059;59.850;10.454;2023-02-28T04:53:44;6.27;;;2.20;;
19798;SDS011;10059;59.850;10.454;2023-02-28T04:56:12;5.70;;;2.30;;
19798;SDS011;10059;59.850;10.454;2023-02-28T04:58:41;4.90;;;2.20;;
19798;SDS011;10059;59.850;10.454;2023-02-28T05:01:16;4.10;;;2.17;;
19798;SDS011;10059;59.850;10.454;2023-02-28T05:03:45;4.33;;;2.00;;
19798;SDS011;10059;59.850;10.454;2023-02-28T05:06:13;4.03;;;1.97;;
19798;SDS011;10059;59.850;10.454;2023-02-28T05:08:40;4.87;;;2.50;;
19798;SDS011;10059;59.850;10.454;2023-02-28T05:11:15;3.83;;;2.27;;
19798;SDS011;10059;59.850;10.454;2023-02-28T05:13:45;3.53;;;2.13;;
19798;SDS011;10059;59.850;10.454;2023-02-28T05:16:12;6.13;;;2.17;;
19798;SDS011;10059;59.850;10.454;2023-02-28T05:18:39;4.23;;;2.30;;
19798;SDS011;10059;59.850;10.454;2023-02-28T05:21:12;3.97;;;2.33;;
19798;SDS011;10059;59.850;10.454;2023-02-28T05:23:53;4.50;;;2.27;;
19798;SDS011;10059;59.850;10.454;2023-02-28T05:26:21;4.83;;;2.23;;
19798;SDS011;10059;59.850;10.454;2023-02-28T05:28:50;7.93;;;2.20;;
19798;SDS011;10059;59.850;10.454;2023-02-28T05:31:16;4.13;;;2.50;;
19798;SDS011;10059;59.850;10.454;2023-02-28T05:33:43;5.00;;;2.40;;
19798;SDS011;10059;59.850;10.454;2023-02-28T05:36:10;4.60;;;2.30;;
19798;SDS011;10059;59.850;10.454;2023-02-28T05:38:37;3.30;;;2.10;;
19798;SDS011;10059;59.850;10.454;2023-02-28T05:41:05;4.30;;;2.20;;
19798;SDS011;10059;59.850;10.454;2023-02-28T05:43:33;4.80;;;2.50;;
19798;SDS011;10059;59.850;10.454;2023-02-28T05:46:03;5.67;;;2.60;;
19798;SDS011;10059;59.850;10.454;2023-02-28T05:48:31;5.07;;;2.40;;
19798;SDS011;10059;59.850;10.454;2023-02-28T05:50:58;11.67;;;4.70;;
19798;SDS011;10059;59.850;10.454;2023-02-28T05:53:25;9.63;;;4.13;;
19798;SDS011;10059;59.850;10.454;2023-02-28T05:55:52;8.60;;;3.60;;
19798;SDS011;10059;59.850;10.454;2023-02-28T05:58:19;8.33;;;3.40;;
19798;SDS011;10059;59.850;10.454;2023-02-28T06:00:46;12.63;;;4.90;;
19798;SDS011;10059;59.850;10.454;2023-02-28T06:03:14;11.07;;;4.67;;
19798;SDS011;10059;59.850;10.454;2023-02-28T06:05:41;9.37;;;4.10;;
19798;SDS011;10059;59.850;10.454;2023-02-28T06:08:08;12.57;;;5.17;;
19798;SDS011;10059;59.850;10.454;2023-02-28T06:10:35;9.63;;;3.13;;
19798;SDS011;10059;59.850;10.454;2023-02-28T06:13:02;7.47;;;3.40;;
19798;SDS011;10059;59.850;10.454;2023-02-28T06:15:30;9.03;;;3.83;;
19798;SDS011;10059;59.850;10.454;2023-02-28T06:17:57;11.13;;;4.30;;
19798;SDS011;10059;59.850;10.454;2023-02-28T06:20:26;8.33;;;4.10;;
19798;SDS011;10059;59.850;10.454;2023-02-28T06:22:54;5.87;;;2.97;;
19798;SDS011;10059;59.850;10.454;2023-02-28T06:25:23;5.70;;;2.93;;
19798;SDS011;10059;59.850;10.454;2023-02-28T06:27:50;4.37;;;2.80;;
19798;SDS011;10059;59.850;10.454;2023-02-28T06:30:17;10.10;;;3.20;;
19798;SDS011;10059;59.850;10.454;2023-02-28T06:32:48;5.60;;;2.73;;
19798;SDS011;10059;59.850;10.454;2023-02-28T06:35:15;4.83;;;2.60;;
19798;SDS011;10059;59.850;10.454;2023-02-28T06:37:43;4.13;;;2.53;;
19798;SDS011;10059;59.850;10.454;2023-02-28T06:40:12;5.33;;;2.63;;
19798;SDS011;10059;59.850;10.454;2023-02-28T06:42:40;7.17;;;3.20;;
19798;SDS011;10059;59.850;10.454;2023-02-28T06:45:07;9.67;;;3.40;;
19798;SDS011;10059;59.850;10.454;2023-02-28T06:47:35;10.10;;;2.53;;
19798;SDS011;10059;59.850;10.454;2023-02-28T06:50:02;5.70;;;2.70;;
19798;SDS011;10059;59.850;10.454;2023-02-28T06:52:30;5.10;;;2.20;;
19798;SDS011;10059;59.850;10.454;2023-02-28T06:54:58;4.80;;;2.37;;
19798;SDS011;10059;59.850;10.454;2023-02-28T06:57:27;5.63;;;2.60;;
19798;SDS011;10059;59.850;10.454;2023-02-28T06:59:55;6.60;;;2.30;;
19798;SDS011;10059;59.850;10.454;2023-02-28T07:02:23;4.67;;;2.67;;
19798;SDS011;10059;59.850;10.454;2023-02-28T07:04:50;5.13;;;3.03;;
19798;SDS011;10059;59.850;10.454;2023-02-28T07:07:16;7.07;;;3.03;;
19798;SDS011;10059;59.850;10.454;2023-02-28T07:09:43;9.13;;;4.13;;
19798;SDS011;10059;59.850;10.454;2023-02-28T07:12:11;4.73;;;2.70;;
19798;SDS011;10059;59.850;10.454;2023-02-28T07:14:38;8.17;;;2.90;;
19798;SDS011;10059;59.850;10.454;2023-02-28T07:17:06;4.10;;;2.83;;
19798;SDS011;10059;59.850;10.454;2023-02-28T07:19:33;4.10;;;2.70;;
19798;SDS011;10059;59.850;10.454;2023-02-28T07:22:00;5.00;;;2.50;;
19798;SDS011;10059;59.850;10.454;2023-02-28T07:24:27;4.53;;;2.47;;
19798;SDS011;10059;59.850;10.454;2023-02-28T07:26:54;8.77;;;4.10;;
19798;SDS011;10059;59.850;10.454;2023-02-28T07:29:22;6.77;;;2.53;;
19798;SDS011;10059;59.850;10.454;2023-02-28T07:31:49;7.80;;;3.60;;
19798;SDS011;10059;59.850;10.454;2023-02-28T07:34:18;7.43;;;3.73;;
19798;SDS011;10059;59.850;10.454;2023-02-28T07:36:45;12.00;;;4.40;;
19798;SDS011;10059;59.850;10.454;2023-02-28T07:39:12;6.57;;;3.97;;
19798;SDS011;10059;59.850;10.454;2023-02-28T07:41:38;7.00;;;3.70;;
19798;SDS011;10059;59.850;10.454;2023-02-28T07:44:08;7.77;;;3.00;;
19798;SDS011;10059;59.850;10.454;2023-02-28T07:46:36;10.50;;;3.20;;
19798;SDS011;10059;59.850;10.454;2023-02-28T07:49:03;4.43;;;2.53;;
19798;SDS011;10059;59.850;10.454;2023-02-28T07:51:31;7.00;;;2.73;;
19798;SDS011;10059;59.850;10.454;2023-02-28T07:53:58;6.67;;;3.07;;
19798;SDS011;10059;59.850;10.454;2023-02-28T07:56:25;10.40;;;4.87;;
19798;SDS011;10059;59.850;10.454;2023-02-28T07:58:52;6.77;;;3.10;;
19798;SDS011;10059;59.850;10.454;2023-02-28T08:01:18;5.00;;;2.90;;
19798;SDS011;10059;59.850;10.454;2023-02-28T08:03:47;4.30;;;2.40;;
19798;SDS011;10059;59.850;10.454;2023-02-28T08:06:17;4.80;;;2.37;;
19798;SDS011;10059;59.850;10.454;2023-02-28T08:08:45;6.03;;;2.70;;
19798;SDS011;10059;59.850;10.454;2023-02-28T08:11:12;6.63;;;2.47;;
19798;SDS011;10059;59.850;10.454;2023-02-28T08:13:39;7.17;;;2.40;;
19798;SDS011;10059;59.850;10.454;2023-02-28T08:16:07;5.00;;;2.90;;
19798;SDS011;10059;59.850;10.454;2023-02-28T08:18:34;6.83;;;3.73;;
19798;SDS011;10059;59.850;10.454;2023-02-28T08:21:06;6.50;;;2.90;;
19798;SDS011;10059;59.850;10.454;2023-02-28T08:23:33;6.30;;;3.33;;
19798;SDS011;10059;59.850;10.454;2023-02-28T08:26:00;11.40;;;5.20;;
19798;SDS011;10059;59.850;10.454;2023-02-28T08:28:28;8.23;;;3.57;;
19798;SDS011;10059;59.850;10.454;2023-02-28T08:30:55;8.73;;;2.20;;
19798;SDS011;10059;59.850;10.454;2023-02-28T08:33:21;6.73;;;2.10;;
19798;SDS011;10059;59.850;10.454;2023-02-28T08:35:51;5.40;;;3.30;;
19798;SDS011;10059;59.850;10.454;2023-02-28T08:38:21;6.13;;;3.63;;
19798;SDS011;10059;59.850;10.454;2023-02-28T08:40:48;11.77;;;3.77;;
19798;SDS011;10059;59.850;10.454;2023-02-28T08:43:15;6.77;;;3.27;;
19798;SDS011;10059;59.850;10.454;2023-02-28T08:45:42;6.87;;;3.83;;
19798;SDS011;10059;59.850;10.454;2023-02-28T08:48:09;33.67;;;15.50;;
19798;SDS011;10059;59.850;10.454;2023-02-28T08:50:36;19.27;;;7.07;;
19798;SDS011;10059;59.850;10.454;2023-02-28T08:53:03;17.77;;;7.90;;
19798;SDS011;10059;59.850;10.454;2023-02-28T08:55:31;18.57;;;6.37;;
19798;SDS011;10059;59.850;10.454;2023-02-28T08:57:58;16.43;;;6.57;;
19798;SDS011;10059;59.850;10.454;2023-02-28T09:00:26;22.53;;;10.13;;
19798;SDS011;10059;59.850;10.454;2023-02-28T09:02:52;15.37;;;5.57;;
19798;SDS011;10059;59.850;10.454;2023-02-28T09:05:19;9.90;;;5.00;;
19798;SDS011;10059;59.850;10.454;2023-02-28T09:07:46;17.63;;;7.30;;
19798;SDS011;10059;59.850;10.454;2023-02-28T09:10:13;16.13;;;5.47;;
19798;SDS011;10059;59.850;10.454;2023-02-28T09:12:41;10.03;;;4.90;;
19798;SDS011;10059;59.850;10.454;2023-02-28T09:15:11;9.23;;;3.10;;
19798;SDS011;10059;59.850;10.454;2023-02-28T09:17:37;4.33;;;2.20;;
19798;SDS011;10059;59.850;10.454;2023-02-28T09:20:05;7.23;;;2.43;;
19798;SDS011;10059;59.850;10.454;2023-02-28T09:22:32;5.33;;;1.97;;
19798;SDS011;10059;59.850;10.454;2023-02-28T09:24:59;7.37;;;3.40;;
19798;SDS011;10059;59.850;10.454;2023-02-28T09:27:26;5.53;;;2.70;;
19798;SDS011;10059;59.850;10.454;2023-02-28T09:29:54;7.13;;;2.50;;
19798;SDS011;10059;59.850;10.454;2023-02-28T09:32:21;4.00;;;1.70;;
19798;SDS011;10059;59.850;10.454;2023-02-28T09:34:48;4.30;;;1.30;;
19798;SDS011;10059;59.850;10.454;2023-02-28T09:37:15;6.50;;;1.57;;
19798;SDS011;10059;59.850;10.454;2023-02-28T09:39:42;6.07;;;1.70;;
19798;SDS011;10059;59.850;10.454;2023-02-28T09:42:11;2.30;;;1.47;;
19798;SDS011;10059;59.850;10.454;2023-02-28T09:44:47;3.60;;;1.50;;
19798;SDS011;10059;59.850;10.454;2023-02-28T09:47:18;3.20;;;1.67;;
19798;SDS011;10059;59.850;10.454;2023-02-28T09:49:53;4.20;;;1.73;;
19798;SDS011;10059;59.850;10.454;2023-02-28T09:52:24;6.27;;;1.83;;
19798;SDS011;10059;59.850;10.454;2023-02-28T09:54:55;5.33;;;1.97;;
19798;SDS011;10059;59.850;10.454;2023-02-28T09:57:27;7.27;;;2.27;;
19798;SDS011;10059;59.850;10.454;2023-02-28T10:00:03;5.30;;;1.70;;
19798;SDS011;10059;59.850;10.454;2023-02-28T10:02:49;3.33;;;1.43;;
19798;SDS011;10059;59.850;10.454;2023-02-28T10:05:41;4.97;;;1.50;;
19798;SDS011;10059;59.850;10.454;2023-02-28T10:08:15;2.13;;;1.00;;
19798;SDS011;10059;59.850;10.454;2023-02-28T10:10:47;6.70;;;1.90;;
19798;SDS011;10059;59.850;10.454;2023-02-28T10:13:20;3.63;;;1.50;;
19798;SDS011;10059;59.850;10.454;2023-02-28T10:15:51;9.13;;;1.80;;
19798;SDS011;10059;59.850;10.454;2023-02-28T10:18:23;5.60;;;1.70;;
19798;SDS011;10059;59.850;10.454;2023-02-28T10:20:52;6.40;;;2.10;;
19798;SDS011;10059;59.850;10.454;2023-02-28T10:23:21;4.87;;;2.20;;
19798;SDS011;10059;59.850;10.454;2023-02-28T10:25:53;4.27;;;1.83;;
19798;SDS011;10059;59.850;10.454;2023-02-28T10:28:24;4.40;;;1.63;;
19798;SDS011;10059;59.850;10.454;2023-02-28T10:30:53;3.40;;;1.70;;
19798;SDS011;10059;59.850;10.454;2023-02-28T10:33:23;9.30;;;2.87;;
19798;SDS011;10059;59.850;10.454;2023-02-28T10:35:52;13.70;;;3.77;;
19798;SDS011;10059;59.850;10.454;2023-02-28T10:38:20;14.77;;;3.93;;
19798;SDS011;10059;59.850;10.454;2023-02-28T10:40:48;14.97;;;4.33;;
19798;SDS011;10059;59.850;10.454;2023-02-28T10:43:19;9.53;;;3.77;;
19798;SDS011;10059;59.850;10.454;2023-02-28T10:45:57;11.17;;;4.03;;
19798;SDS011;10059;59.850;10.454;2023-02-28T10:48:32;12.67;;;4.30;;
19798;SDS011;10059;59.850;10.454;2023-02-28T10:51:02;8.53;;;3.80;;
19798;SDS011;10059;59.850;10.454;2023-02-28T10:53:34;11.43;;;4.00;;
19798;SDS011;10059;59.850;10.454;2023-02-28T10:56:04;9.73;;;4.03;;
19798;SDS011;10059;59.850;10.454;2023-02-28T10:58:42;6.87;;;1.87;;
19798;SDS011;10059;59.850;10.454;2023-02-28T11:01:14;6.23;;;1.57;;
19798;SDS011;10059;59.850;10.454;2023-02-28T11:03:44;4.63;;;1.00;;
19798;SDS011;10059;59.850;10.454;2023-02-28T11:06:13;9.03;;;3.13;;
19798;SDS011;10059;59.850;10.454;2023-02-28T11:08:46;7.70;;;3.60;;
19798;SDS011;10059;59.850;10.454;2023-02-28T11:11:15;5.33;;;1.80;;
19798;SDS011;10059;59.850;10.454;2023-02-28T11:13:43;4.43;;;1.43;;
19798;SDS011;10059;59.850;10.454;2023-02-28T11:16:13;6.73;;;2.13;;
19798;SDS011;10059;59.850;10.454;2023-02-28T11:18:42;5.47;;;2.20;;
19798;SDS011;10059;59.850;10.454;2023-02-28T11:21:18;4.87;;;1.93;;
19798;SDS011;10059;59.850;10.454;2023-02-28T11:23:49;8.17;;;3.67;;
19798;SDS011;10059;59.850;10.454;2023-02-28T11:29:17;8.87;;;4.47;;
19798;SDS011;10059;59.850;10.454;2023-02-28T11:32:02;10.40;;;4.77;;
19798;SDS011;10059;59.850;10.454;2023-02-28T11:34:39;10.70;;;4.20;;
19798;SDS011;10059;59.850;10.454;2023-02-28T11:37:10;8.80;;;3.93;;
19798;SDS011;10059;59.850;10.454;2023-02-28T11:39:39;7.83;;;4.00;;
19798;SDS011;10059;59.850;10.454;2023-02-28T11:42:17;9.47;;;3.60;;
19798;SDS011;10059;59.850;10.454;2023-02-28T11:45:08;7.77;;;3.90;;
19798;SDS011;10059;59.850;10.454;2023-02-28T11:47:44;8.13;;;3.80;;
19798;SDS011;10059;59.850;10.454;2023-02-28T11:50:31;9.00;;;3.23;;
19798;SDS011;10059;59.850;10.454;2023-02-28T11:53:21;7.87;;;3.30;;
19798;SDS011;10059;59.850;10.454;2023-02-28T11:55:59;7.20;;;3.80;;
19798;SDS011;10059;59.850;10.454;2023-02-28T11:58:33;9.70;;;3.30;;
19798;SDS011;10059;59.850;10.454;2023-02-28T12:01:20;9.57;;;3.10;;
19798;SDS011;10059;59.850;10.454;2023-02-28T12:04:04;5.93;;;2.40;;
19798;SDS011;10059;59.850;10.454;2023-02-28T12:06:45;2.23;;;0.40;;
19798;SDS011;10059;59.850;10.454;2023-02-28T12:09:27;1.93;;;0.50;;
19798;SDS011;10059;59.850;10.454;2023-02-28T12:12:04;1.30;;;0.33;;
19798;SDS011;10059;59.850;10.454;2023-02-28T12:14:59;1.60;;;0.53;;
19798;SDS011;10059;59.850;10.454;2023-02-28T12:18:04;2.67;;;0.40;;
19798;SDS011;10059;59.850;10.454;2023-02-28T12:20:49;3.13;;;0.60;;
19798;SDS011;10059;59.850;10.454;2023-02-28T12:23:26;2.80;;;0.43;;
19798;SDS011;10059;59.850;10.454;2023-02-28T12:26:17;0.70;;;0.40;;
19798;SDS011;10059;59.850;10.454;2023-02-28T12:28:53;1.90;;;0.50;;
19798;SDS011;10059;59.850;10.454;2023-02-28T12:31:26;3.53;;;0.50;;
19798;SDS011;10059;59.850;10.454;2023-02-28T12:33:59;1.43;;;0.60;;
19798;SDS011;10059;59.850;10.454;2023-02-28T12:36:29;1.30;;;0.30;;
19798;SDS011;10059;59.850;10.454;2023-02-28T12:38:58;1.90;;;0.30;;
19798;SDS011;10059;59.850;10.454;2023-02-28T12:41:29;7.47;;;2.17;;
19798;SDS011;10059;59.850;10.454;2023-02-28T12:44:01;13.97;;;4.17;;
19798;SDS011;10059;59.850;10.454;2023-02-28T12:46:32;12.37;;;3.87;;
19798;SDS011;10059;59.850;10.454;2023-02-28T12:49:04;21.27;;;4.10;;
19798;SDS011;10059;59.850;10.454;2023-02-28T12:51:34;13.80;;;3.63;;
19798;SDS011;10059;59.850;10.454;2023-02-28T12:54:09;11.37;;;3.40;;
19798;SDS011;10059;59.850;10.454;2023-02-28T12:56:43;12.27;;;4.17;;
19798;SDS011;10059;59.850;10.454;2023-02-28T12:59:14;11.50;;;4.50;;
19798;SDS011;10059;59.850;10.454;2023-02-28T13:01:57;13.00;;;3.80;;
19798;SDS011;10059;59.850;10.454;2023-02-28T13:04:43;18.83;;;4.23;;
19798;SDS011;10059;59.850;10.454;2023-02-28T13:07:42;8.57;;;3.87;;
19798;SDS011;10059;59.850;10.454;2023-02-28T13:10:24;11.70;;;4.30;;
19798;SDS011;10059;59.850;10.454;2023-02-28T13:13:05;11.37;;;3.57;;
19798;SDS011;10059;59.850;10.454;2023-02-28T13:15:31;9.00;;;3.67;;
19798;SDS011;10059;59.850;10.454;2023-02-28T13:18:03;11.33;;;4.27;;
19798;SDS011;10059;59.850;10.454;2023-02-28T13:20:31;10.50;;;3.67;;
19798;SDS011;10059;59.850;10.454;2023-02-28T13:23:01;9.53;;;3.50;;
19798;SDS011;10059;59.850;10.454;2023-02-28T13:34:41;0.33;;;0.10;;
19798;SDS011;10059;59.850;10.454;2023-02-28T13:37:34;0.40;;;0.20;;
19798;SDS011;10059;59.850;10.454;2023-02-28T13:43:03;0.40;;;0.10;;
19798;SDS011;10059;59.850;10.454;2023-02-28T13:45:34;0.10;;;0.10;;
19798;SDS011;10059;59.850;10.454;2023-02-28T13:48:04;0.13;;;0.13;;
19798;SDS011;10059;59.850;10.454;2023-02-28T13:50:41;0.70;;;0.20;;
19798;SDS011;10059;59.850;10.454;2023-02-28T13:56:19;0.20;;;0.10;;
19798;SDS011;10059;59.850;10.454;2023-02-28T13:58:55;0.43;;;0.20;;
19798;SDS011;10059;59.850;10.454;2023-02-28T14:01:34;0.13;;;0.13;;
19798;SDS011;10059;59.850;10.454;2023-02-28T14:04:27;0.10;;;0.10;;
19798;SDS011;10059;59.850;10.454;2023-02-28T14:07:16;0.30;;;0.23;;
19798;SDS011;10059;59.850;10.454;2023-02-28T14:09:46;0.20;;;0.10;;
19798;SDS011;10059;59.850;10.454;2023-02-28T14:15:30;0.20;;;0.10;;
19798;SDS011;10059;59.850;10.454;2023-02-28T14:18:14;1.03;;;0.10;;
19798;SDS011;10059;59.850;10.454;2023-02-28T14:20:45;0.50;;;0.20;;
19798;SDS011;10059;59.850;10.454;2023-02-28T14:23:15;2.63;;;0.20;;
19798;SDS011;10059;59.850;10.454;2023-02-28T14:25:53;0.30;;;0.20;;
19798;SDS011;10059;59.850;10.454;2023-02-28T14:28:32;0.20;;;0.20;;
19798;SDS011;10059;59.850;10.454;2023-02-28T14:31:13;0.20;;;0.20;;
19798;SDS011;10059;59.850;10.454;2023-02-28T14:33:47;0.80;;;0.37;;
19798;SDS011;10059;59.850;10.454;2023-02-28T14:36:32;0.20;;;0.20;;
19798;SDS011;10059;59.850;10.454;2023-02-28T14:39:04;0.60;;;0.20;;
19798;SDS011;10059;59.850;10.454;2023-02-28T14:41:33;0.87;;;0.20;;
19798;SDS011;10059;59.850;10.454;2023-02-28T14:44:02;0.23;;;0.20;;
19798;SDS011;10059;59.850;10.454;2023-02-28T14:46:41;1.13;;;0.30;;
19798;SDS011;10059;59.850;10.454;2023-02-28T14:49:13;0.20;;;0.20;;
19798;SDS011;10059;59.850;10.454;2023-02-28T14:51:43;0.20;;;0.20;;
19798;SDS011;10059;59.850;10.454;2023-02-28T14:54:13;0.67;;;0.30;;
19798;SDS011;10059;59.850;10.454;2023-02-28T14:56:41;0.40;;;0.20;;
19798;SDS011;10059;59.850;10.454;2023-02-28T14:59:21;0.30;;;0.20;;
19798;SDS011;10059;59.850;10.454;2023-02-28T15:01:52;1.90;;;0.40;;
19798;SDS011;10059;59.850;10.454;2023-02-28T15:04:41;0.50;;;0.30;;
19798;SDS011;10059;59.850;10.454;2023-02-28T15:07:08;0.20;;;0.20;;
19798;SDS011;10059;59.850;10.454;2023-02-28T15:09:36;0.20;;;0.20;;
19798;SDS011;10059;59.850;10.454;2023-02-28T15:12:02;0.57;;;0.30;;
19798;SDS011;10059;59.850;10.454;2023-02-28T15:14:29;0.50;;;0.30;;
19798;SDS011;10059;59.850;10.454;2023-02-28T15:16:59;1.03;;;0.27;;
19798;SDS011;10059;59.850;10.454;2023-02-28T15:19:29;0.47;;;0.20;;
19798;SDS011;10059;59.850;10.454;2023-02-28T15:22:01;0.43;;;0.17;;
19798;SDS011;10059;59.850;10.454;2023-02-28T15:24:31;0.60;;;0.30;;
19798;SDS011;10059;59.850;10.454;2023-02-28T15:27:04;0.80;;;0.30;;
19798;SDS011;10059;59.850;10.454;2023-02-28T15:29:33;0.50;;;0.30;;